Time;durP1;ratioP1;P1;durP2;ratioP2;P2;SDS_P1;SDS_P2;PMS_P1;PMS_P2;Temp;Humidity;BMP_temperature;BMP_pressure;BME280_temperature;BME280_humidity;BME280_pressure;Samples;Min_cycle;Max_cycle;Signal;HPM_P1;HPM_P2
2021/08/04 00:00:20;;;;;;;2.90;1.83;;;;;;;;;;5054411;28;20525;-70
2021/08/04 00:02:46;;;;;;;1.70;1.50;;;;;;;;;;5053415;28;20773;-70
2021/08/04 00:05:14;;;;;;;2.13;1.53;;;;;;;;;;5054396;28;20426;-70
2021/08/04 00:07:40;;;;;;;4.10;1.70;;;;;;;;;;5053923;28;20434;-69
2021/08/04 00:10:06;;;;;;;2.30;1.43;;;;;;;;;;5054136;28;20766;-72
2021/08/04 00:12:32;;;;;;;1.77;1.67;;;;;;;;;;5054351;28;20433;-70
2021/08/04 00:14:58;;;;;;;1.90;1.70;;;;;;;;;;5054118;28;20410;-70
2021/08/04 00:17:24;;;;;;;1.90;1.73;;;;;;;;;;5053209;28;20411;-69
2021/08/04 00:19:50;;;;;;;1.70;1.60;;;;;;;;;;5053871;28;20498;-71
2021/08/04 00:22:16;;;;;;;2.80;1.60;;;;;;;;;;5053804;28;20473;-70
2021/08/04 00:27:46;;;;;;;2.70;2.10;;;;;;;;;;5053688;28;20865;-68
2021/08/04 00:30:12;;;;;;;1.60;1.50;;;;;;;;;;5053019;28;20407;-69
2021/08/04 00:32:38;;;;;;;2.13;1.60;;;;;;;;;;5053455;28;20494;-70
2021/08/04 00:35:04;;;;;;;4.80;1.70;;;;;;;;;;5053281;28;20461;-69
2021/08/04 00:37:30;;;;;;;3.27;1.40;;;;;;;;;;5053582;28;20465;-70
2021/08/04 00:42:59;;;;;;;2.00;1.60;;;;;;;;;;5053469;28;20414;-71
2021/08/04 00:45:25;;;;;;;2.27;1.40;;;;;;;;;;5053370;28;20411;-71
2021/08/04 00:47:52;;;;;;;3.00;1.57;;;;;;;;;;5053469;28;20410;-71
2021/08/04 00:50:18;;;;;;;4.80;1.30;;;;;;;;;;5053285;28;20786;-69
2021/08/04 00:52:45;;;;;;;1.53;1.43;;;;;;;;;;5052000;28;20411;-69
2021/08/04 00:58:15;;;;;;;3.20;1.60;;;;;;;;;;5053343;28;20465;-69
2021/08/04 01:00:42;;;;;;;1.60;1.50;;;;;;;;;;5053122;28;20469;-69
2021/08/04 01:03:09;;;;;;;3.03;1.47;;;;;;;;;;5053411;28;20906;-71
2021/08/04 01:05:40;;;;;;;2.20;1.60;;;;;;;;;;5053374;28;20418;-68
2021/08/04 01:08:08;;;;;;;2.27;2.07;;;;;;;;;;5052829;28;20430;-69
2021/08/04 01:10:37;;;;;;;2.43;1.90;;;;;;;;;;5053221;28;20468;-69
2021/08/04 01:13:03;;;;;;;3.53;2.00;;;;;;;;;;5052991;28;20886;-69
2021/08/04 01:15:31;;;;;;;3.00;1.50;;;;;;;;;;5053180;28;20442;-70
2021/08/04 01:17:57;;;;;;;2.07;1.50;;;;;;;;;;5053057;28;20518;-69
2021/08/04 01:20:24;;;;;;;2.20;1.70;;;;;;;;;;5052904;28;20534;-69
2021/08/04 01:23:02;;;;;;;2.00;1.80;;;;;;;;;;5052771;28;20403;-69
2021/08/04 01:28:38;;;;;;;1.77;1.50;;;;;;;;;;5052794;28;20464;-68
2021/08/04 01:31:06;;;;;;;2.07;1.87;;;;;;;;;;5052913;28;20460;-70
2021/08/04 01:33:34;;;;;;;1.60;1.40;;;;;;;;;;5051431;28;20514;-69
2021/08/04 01:36:00;;;;;;;1.80;1.47;;;;;;;;;;5052604;28;20477;-69
2021/08/04 01:38:28;;;;;;;2.63;2.37;;;;;;;;;;5052455;28;20506;-68
2021/08/04 01:40:55;;;;;;;1.93;1.63;;;;;;;;;;5052517;28;20477;-69
2021/08/04 01:43:22;;;;;;;1.97;1.80;;;;;;;;;;5058624;28;20451;-68
2021/08/04 01:45:49;;;;;;;4.07;1.60;;;;;;;;;;5059022;28;20549;-69
2021/08/04 01:48:15;;;;;;;3.63;1.50;;;;;;;;;;5059132;28;20418;-69
2021/08/04 01:50:41;;;;;;;3.10;1.90;;;;;;;;;;5059312;28;20418;-69
2021/08/04 01:53:08;;;;;;;2.10;1.70;;;;;;;;;;5059104;28;20407;-69
2021/08/04 01:58:42;;;;;;;2.20;1.47;;;;;;;;;;5059257;28;20464;-69
2021/08/04 02:01:08;;;;;;;1.87;1.60;;;;;;;;;;5059159;28;20520;-69
2021/08/04 02:03:34;;;;;;;2.23;2.03;;;;;;;;;;5059047;28;20464;-70
2021/08/04 02:06:06;;;;;;;2.63;1.90;;;;;;;;;;5059211;28;20419;-70
2021/08/04 02:08:52;;;;;;;2.07;1.97;;;;;;;;;;5059209;28;20415;-69
2021/08/04 02:11:44;;;;;;;2.97;2.23;;;;;;;;;;5058876;28;20419;-69
2021/08/04 02:14:22;;;;;;;2.90;1.70;;;;;;;;;;5057039;28;20439;-69
2021/08/04 02:17:02;;;;;;;2.23;2.03;;;;;;;;;;5059008;28;20904;-69
2021/08/04 02:19:30;;;;;;;3.40;1.73;;;;;;;;;;5058737;28;21052;-70
2021/08/04 02:22:03;;;;;;;1.83;1.70;;;;;;;;;;5058875;28;20407;-70
2021/08/04 02:24:32;;;;;;;2.23;1.67;;;;;;;;;;5059118;28;20422;-69
2021/08/04 02:26:59;;;;;;;1.73;1.53;;;;;;;;;;5058997;28;20464;-69
2021/08/04 02:29:25;;;;;;;2.03;1.70;;;;;;;;;;5059174;28;20460;-68
2021/08/04 02:31:51;;;;;;;2.70;1.63;;;;;;;;;;5059099;28;20411;-68
2021/08/04 02:34:19;;;;;;;1.90;1.70;;;;;;;;;;5058772;28;20443;-70
2021/08/04 02:36:45;;;;;;;1.90;1.67;;;;;;;;;;5059008;28;20402;-69
2021/08/04 02:39:11;;;;;;;1.93;1.70;;;;;;;;;;5058943;28;20410;-70
2021/08/04 02:41:37;;;;;;;2.30;1.47;;;;;;;;;;5058867;28;20484;-70
2021/08/04 02:44:04;;;;;;;2.03;1.83;;;;;;;;;;5058611;28;20403;-68
2021/08/04 02:46:30;;;;;;;1.57;1.47;;;;;;;;;;5059137;28;20415;-69
2021/08/04 02:48:57;;;;;;;2.33;1.77;;;;;;;;;;5057547;28;20989;-68
2021/08/04 02:51:23;;;;;;;1.70;1.60;;;;;;;;;;5058850;28;20490;-68
2021/08/04 02:53:59;;;;;;;3.47;1.67;;;;;;;;;;5056018;28;20489;-68
2021/08/04 02:56:26;;;;;;;1.83;1.73;;;;;;;;;;5055819;28;20506;-69
2021/08/04 02:58:52;;;;;;;3.17;1.67;;;;;;;;;;5055571;28;20410;-69
2021/08/04 03:01:18;;;;;;;1.63;1.50;;;;;;;;;;5055377;28;20471;-69
2021/08/04 03:03:44;;;;;;;2.60;2.30;;;;;;;;;;5055176;28;20435;-68
2021/08/04 03:06:10;;;;;;;3.03;2.00;;;;;;;;;;5055379;28;20411;-69
2021/08/04 03:08:37;;;;;;;2.60;1.60;;;;;;;;;;5055031;28;20456;-69
2021/08/04 03:14:07;;;;;;;2.30;1.80;;;;;;;;;;5054910;28;20563;-69
2021/08/04 03:16:33;;;;;;;4.40;2.07;;;;;;;;;;5055002;28;20590;-69
2021/08/04 03:18:59;;;;;;;2.40;1.47;;;;;;;;;;5054932;28;20488;-69
2021/08/04 03:21:25;;;;;;;2.07;1.87;;;;;;;;;;5055012;28;20466;-69
2021/08/04 03:23:51;;;;;;;1.60;1.50;;;;;;;;;;5054986;28;20834;-71
2021/08/04 03:26:17;;;;;;;2.00;1.70;;;;;;;;;;5055006;28;20505;-69
2021/08/04 03:28:43;;;;;;;2.50;1.93;;;;;;;;;;5054867;28;20897;-70
2021/08/04 03:31:09;;;;;;;1.67;1.57;;;;;;;;;;5054834;28;20426;-69
2021/08/04 03:33:35;;;;;;;3.27;1.57;;;;;;;;;;5054963;28;20754;-68
2021/08/04 03:36:01;;;;;;;4.20;1.87;;;;;;;;;;5054541;28;20553;-70
2021/08/04 03:38:27;;;;;;;3.10;1.97;;;;;;;;;;5054879;28;20415;-69
2021/08/04 03:43:56;;;;;;;2.23;2.03;;;;;;;;;;5054230;28;20413;-70
2021/08/04 03:46:22;;;;;;;2.77;1.83;;;;;;;;;;5054233;28;20403;-68
2021/08/04 03:48:48;;;;;;;3.27;1.93;;;;;;;;;;5054563;28;20825;-68
2021/08/04 03:51:14;;;;;;;2.23;1.90;;;;;;;;;;5053646;28;20423;-70
2021/08/04 03:53:40;;;;;;;2.13;1.93;;;;;;;;;;5052976;28;20936;-70
2021/08/04 03:59:10;;;;;;;2.20;2.00;;;;;;;;;;5054335;28;20426;-69
2021/08/04 04:01:36;;;;;;;3.83;2.10;;;;;;;;;;5054345;28;20732;-69
2021/08/04 04:04:02;;;;;;;3.60;2.13;;;;;;;;;;5054279;28;20465;-69
2021/08/04 04:06:28;;;;;;;1.80;1.70;;;;;;;;;;5053359;28;20960;-69
2021/08/04 04:08:54;;;;;;;3.30;1.90;;;;;;;;;;5054092;28;20447;-70
2021/08/04 04:14:23;;;;;;;2.10;1.70;;;;;;;;;;5054156;28;20924;-69
2021/08/04 04:16:49;;;;;;;4.70;2.17;;;;;;;;;;5054086;28;20407;-69
2021/08/04 04:19:15;;;;;;;2.90;2.60;;;;;;;;;;5053896;28;20403;-69
2021/08/04 04:21:41;;;;;;;3.27;1.70;;;;;;;;;;5054061;28;20412;-69
2021/08/04 04:24:07;;;;;;;4.63;1.77;;;;;;;;;;5053751;28;20924;-68
2021/08/04 04:29:38;;;;;;;2.60;1.93;;;;;;;;;;5053675;28;20417;-69
2021/08/04 04:32:05;;;;;;;2.33;2.13;;;;;;;;;;5053780;28;20878;-68
2021/08/04 04:34:31;;;;;;;2.60;2.30;;;;;;;;;;5053667;28;20520;-69
2021/08/04 04:36:57;;;;;;;4.70;2.27;;;;;;;;;;5053682;28;20426;-69
2021/08/04 04:39:23;;;;;;;1.70;1.60;;;;;;;;;;5053476;28;20403;-69
2021/08/04 04:41:49;;;;;;;3.03;1.77;;;;;;;;;;5053638;28;20980;-68
2021/08/04 04:44:15;;;;;;;5.70;1.70;;;;;;;;;;5053614;28;20460;-67
2021/08/04 04:46:41;;;;;;;3.13;2.33;;;;;;;;;;5053449;28;20413;-69
2021/08/04 04:49:07;;;;;;;2.60;2.40;;;;;;;;;;5053428;28;20464;-68
2021/08/04 04:51:33;;;;;;;2.33;1.97;;;;;;;;;;5050628;28;20411;-69
2021/08/04 04:53:59;;;;;;;2.73;1.77;;;;;;;;;;5053326;28;20468;-69
2021/08/04 04:59:28;;;;;;;2.93;1.83;;;;;;;;;;5053216;28;20453;-70
2021/08/04 05:01:54;;;;;;;5.53;2.30;;;;;;;;;;5053499;28;20450;-70
2021/08/04 05:04:20;;;;;;;2.50;2.30;;;;;;;;;;5053247;28;20818;-69
2021/08/04 05:06:46;;;;;;;2.40;2.20;;;;;;;;;;5051946;28;20439;-69
2021/08/04 05:09:11;;;;;;;2.03;1.83;;;;;;;;;;5051781;28;20472;-69
2021/08/04 05:14:41;;;;;;;1.70;1.60;;;;;;;;;;5053162;28;20445;-69
2021/08/04 05:17:10;;;;;;;3.27;2.20;;;;;;;;;;5052788;28;20873;-69
2021/08/04 05:19:36;;;;;;;4.53;1.50;;;;;;;;;;5051581;28;20964;-68
2021/08/04 05:22:02;;;;;;;2.67;2.20;;;;;;;;;;5052907;28;20430;-68
2021/08/04 05:24:28;;;;;;;5.70;2.20;;;;;;;;;;5052779;28;20408;-68
2021/08/04 05:29:58;;;;;;;3.70;1.97;;;;;;;;;;5052834;28;20468;-68
2021/08/04 05:32:24;;;;;;;1.93;1.83;;;;;;;;;;5052821;28;20801;-68
2021/08/04 05:34:50;;;;;;;4.33;2.00;;;;;;;;;;5052780;28;20474;-70
2021/08/04 05:37:16;;;;;;;2.53;2.27;;;;;;;;;;5052860;28;20469;-69
2021/08/04 05:39:42;;;;;;;3.20;1.70;;;;;;;;;;5052819;28;20481;-70
2021/08/04 05:45:11;;;;;;;7.30;2.67;;;;;;;;;;5052347;28;20441;-70
2021/08/04 05:47:37;;;;;;;2.17;1.97;;;;;;;;;;5052615;28;20419;-70
2021/08/04 05:50:04;;;;;;;5.63;2.00;;;;;;;;;;5052737;28;20448;-69
2021/08/04 05:52:30;;;;;;;1.93;1.73;;;;;;;;;;5052488;28;20407;-69
2021/08/04 05:54:56;;;;;;;3.77;2.03;;;;;;;;;;5052605;28;20448;-69
2021/08/04 05:57:22;;;;;;;1.93;1.80;;;;;;;;;;5052647;28;20454;-69
2021/08/04 05:59:48;;;;;;;2.13;1.93;;;;;;;;;;5052544;28;20455;-70
2021/08/04 06:02:14;;;;;;;2.03;1.83;;;;;;;;;;5052498;28;20774;-70
2021/08/04 06:04:40;;;;;;;2.60;1.93;;;;;;;;;;5052763;28;20553;-69
2021/08/04 06:07:06;;;;;;;2.30;1.77;;;;;;;;;;5052527;28;20442;-69
2021/08/04 06:09:32;;;;;;;2.20;2.00;;;;;;;;;;5052534;28;20481;-69
2021/08/04 06:15:02;;;;;;;1.90;1.50;;;;;;;;;;5052360;28;20500;-70
2021/08/04 06:17:28;;;;;;;2.63;2.07;;;;;;;;;;5052149;28;20410;-68
2021/08/04 06:19:54;;;;;;;2.20;2.00;;;;;;;;;;5051954;28;20983;-69
2021/08/04 06:22:20;;;;;;;3.00;1.80;;;;;;;;;;5051752;28;20423;-69
2021/08/04 06:24:46;;;;;;;2.70;2.10;;;;;;;;;;5051960;28;20415;-68
2021/08/04 06:30:15;;;;;;;2.07;1.73;;;;;;;;;;5055332;28;20441;-69
2021/08/04 06:32:41;;;;;;;3.60;2.00;;;;;;;;;;5054599;28;20491;-68
2021/08/04 06:35:09;;;;;;;4.33;1.57;;;;;;;;;;5055489;28;20559;-69
2021/08/04 06:37:35;;;;;;;3.00;1.83;;;;;;;;;;5055704;28;20452;-69
2021/08/04 06:40:01;;;;;;;4.47;1.97;;;;;;;;;;5055476;28;20474;-68
2021/08/04 06:45:30;;;;;;;2.80;2.17;;;;;;;;;;5055301;28;20414;-68
2021/08/04 06:47:56;;;;;;;3.00;2.00;;;;;;;;;;5055209;28;20874;-68
2021/08/04 06:50:24;;;;;;;3.37;2.33;;;;;;;;;;5053983;28;20516;-70
2021/08/04 06:52:50;;;;;;;2.33;2.17;;;;;;;;;;5054845;28;20426;-69
2021/08/04 06:55:16;;;;;;;2.03;1.70;;;;;;;;;;5054995;28;20422;-71
2021/08/04 07:00:45;;;;;;;2.30;2.10;;;;;;;;;;5055021;28;20481;-71
2021/08/04 07:03:12;;;;;;;3.00;2.10;;;;;;;;;;5054978;28;20433;-71
2021/08/04 07:05:39;;;;;;;1.93;1.70;;;;;;;;;;5055553;28;20430;-71
2021/08/04 07:08:09;;;;;;;1.83;1.67;;;;;;;;;;5055120;28;20403;-71
2021/08/04 07:10:35;;;;;;;1.77;1.57;;;;;;;;;;5055486;28;20770;-71
2021/08/04 07:13:01;;;;;;;3.73;1.80;;;;;;;;;;5055450;28;20411;-71
2021/08/04 07:15:27;;;;;;;1.60;1.50;;;;;;;;;;5053857;28;20897;-72
2021/08/04 07:17:53;;;;;;;1.83;1.67;;;;;;;;;;5054978;28;20422;-72
2021/08/04 07:20:22;;;;;;;1.97;1.77;;;;;;;;;;5055024;28;20501;-71
2021/08/04 07:22:49;;;;;;;1.77;1.67;;;;;;;;;;5054775;28;20412;-70
2021/08/04 07:25:17;;;;;;;1.70;1.60;;;;;;;;;;5054840;28;20415;-71
2021/08/04 07:30:46;;;;;;;3.17;1.60;;;;;;;;;;5054800;28;20450;-70
2021/08/04 07:33:12;;;;;;;1.40;1.30;;;;;;;;;;5054773;28;20435;-70
2021/08/04 07:35:38;;;;;;;2.50;2.00;;;;;;;;;;5054620;28;20467;-71
2021/08/04 07:38:04;;;;;;;1.90;1.60;;;;;;;;;;5054618;28;20493;-71
2021/08/04 07:40:30;;;;;;;2.00;1.67;;;;;;;;;;5054241;28;20458;-70
2021/08/04 07:46:00;;;;;;;1.67;1.57;;;;;;;;;;5054607;28;20465;-70
2021/08/04 07:48:28;;;;;;;1.80;1.70;;;;;;;;;;5054524;28;20422;-70
2021/08/04 07:50:55;;;;;;;2.53;1.50;;;;;;;;;;5054633;28;20433;-71
2021/08/04 07:53:21;;;;;;;2.40;1.63;;;;;;;;;;5053222;28;20534;-70
2021/08/04 07:55:47;;;;;;;1.83;1.63;;;;;;;;;;5054719;28;20746;-69
2021/08/04 08:01:17;;;;;;;2.30;1.50;;;;;;;;;;5052584;28;20540;-69
2021/08/04 08:03:42;;;;;;;3.53;1.50;;;;;;;;;;5053346;28;20904;-70
2021/08/04 08:06:09;;;;;;;1.63;1.50;;;;;;;;;;5052954;28;20415;-70
2021/08/04 08:08:34;;;;;;;1.83;1.50;;;;;;;;;;5052778;28;20422;-71
2021/08/04 08:11:03;;;;;;;2.63;2.03;;;;;;;;;;5053199;28;20419;-70
2021/08/04 08:13:29;;;;;;;1.80;1.50;;;;;;;;;;5053582;28;20423;-71
2021/08/04 08:15:55;;;;;;;2.17;1.77;;;;;;;;;;5052335;28;20422;-71
2021/08/04 08:18:21;;;;;;;3.47;1.57;;;;;;;;;;5053433;28;20421;-70
2021/08/04 08:20:47;;;;;;;1.90;1.80;;;;;;;;;;5052648;28;21047;-69
2021/08/04 08:23:13;;;;;;;3.80;1.93;;;;;;;;;;5053426;28;20506;-69
2021/08/04 08:25:40;;;;;;;3.70;1.50;;;;;;;;;;5053097;28;20477;-71
2021/08/04 08:31:09;;;;;;;2.43;1.70;;;;;;;;;;5052818;28;20402;-70
2021/08/04 08:33:35;;;;;;;1.50;1.40;;;;;;;;;;5052624;28;20433;-70
2021/08/04 08:36:01;;;;;;;2.20;1.33;;;;;;;;;;5051268;28;20545;-70
2021/08/04 08:38:27;;;;;;;2.37;1.57;;;;;;;;;;5052577;28;20782;-70
2021/08/04 08:40:54;;;;;;;1.50;1.40;;;;;;;;;;5051401;28;20477;-71
2021/08/04 08:46:33;;;;;;;1.50;1.40;;;;;;;;;;5052437;28;20453;-70
2021/08/04 08:49:00;;;;;;;2.50;1.60;;;;;;;;;;5052358;28;20411;-70
2021/08/04 08:51:27;;;;;;;1.57;1.27;;;;;;;;;;5050640;28;20407;-69
2021/08/04 08:53:53;;;;;;;2.33;2.13;;;;;;;;;;5052482;28;20411;-71
2021/08/04 08:56:20;;;;;;;1.57;1.40;;;;;;;;;;5051417;28;20937;-69
2021/08/04 08:58:47;;;;;;;1.63;1.53;;;;;;;;;;5052269;28;20411;-70
2021/08/04 09:01:13;;;;;;;2.97;1.73;;;;;;;;;;5052257;28;20565;-71
2021/08/04 09:03:39;;;;;;;2.67;1.70;;;;;;;;;;5052345;28;20758;-70
2021/08/04 09:06:05;;;;;;;2.43;1.57;;;;;;;;;;5052456;28;20905;-70
2021/08/04 09:08:32;;;;;;;2.37;1.67;;;;;;;;;;5052210;28;20445;-70
2021/08/04 09:11:08;;;;;;;3.60;1.67;;;;;;;;;;5051971;28;20414;-70
2021/08/04 09:16:39;;;;;;;2.60;1.50;;;;;;;;;;5051952;28;20424;-70
2021/08/04 09:19:17;;;;;;;1.87;1.60;;;;;;;;;;5051997;28;20464;-69
2021/08/04 09:21:43;;;;;;;1.90;1.80;;;;;;;;;;5050747;28;20565;-70
2021/08/04 09:24:09;;;;;;;1.93;1.70;;;;;;;;;;5051663;28;20415;-70
2021/08/04 09:26:39;;;;;;;1.60;1.50;;;;;;;;;;5051380;28;20548;-69
2021/08/04 09:29:06;;;;;;;1.80;1.70;;;;;;;;;;5052021;28;20442;-69
2021/08/04 09:31:45;;;;;;;1.57;1.47;;;;;;;;;;5051723;28;20462;-70
2021/08/04 09:34:26;;;;;;;3.37;1.40;;;;;;;;;;5050261;28;20487;-71
2021/08/04 09:37:19;;;;;;;1.90;1.40;;;;;;;;;;5051997;28;20914;-70
2021/08/04 09:39:54;;;;;;;2.07;1.83;;;;;;;;;;5049926;28;20492;-71
2021/08/04 09:42:21;;;;;;;1.47;1.37;;;;;;;;;;5051690;28;20563;-70
2021/08/04 09:44:57;;;;;;;2.33;1.80;;;;;;;;;;5051470;28;20480;-71
2021/08/04 09:47:24;;;;;;;1.70;1.60;;;;;;;;;;5051987;28;20407;-70
2021/08/04 09:49:57;;;;;;;2.67;1.53;;;;;;;;;;5051953;28;20409;-71
2021/08/04 09:52:23;;;;;;;3.30;1.90;;;;;;;;;;5051888;28;20410;-72
2021/08/04 09:54:49;;;;;;;1.90;1.77;;;;;;;;;;5052263;28;20407;-71
2021/08/04 09:57:43;;;;;;;1.93;1.50;;;;;;;;;;5052242;28;20537;-70
2021/08/04 10:00:10;;;;;;;1.30;1.20;;;;;;;;;;5051878;28;20466;-71
2021/08/04 10:02:36;;;;;;;2.27;1.73;;;;;;;;;;5049910;28;20466;-71
2021/08/04 10:05:21;;;;;;;1.97;1.67;;;;;;;;;;5056339;28;20472;-71
2021/08/04 10:08:00;;;;;;;4.13;1.87;;;;;;;;;;5056185;28;20463;-70
2021/08/04 10:10:26;;;;;;;3.00;1.73;;;;;;;;;;5055619;28;20414;-71
2021/08/04 10:12:53;;;;;;;2.70;1.50;;;;;;;;;;5054391;28;20422;-70
2021/08/04 10:15:19;;;;;;;2.43;1.73;;;;;;;;;;5055831;28;20446;-70
2021/08/04 10:17:45;;;;;;;1.87;1.77;;;;;;;;;;5056161;28;20448;-71
2021/08/04 10:20:11;;;;;;;3.03;1.97;;;;;;;;;;5054304;28;20462;-71
2021/08/04 10:22:37;;;;;;;1.63;1.23;;;;;;;;;;5055430;28;20415;-70
2021/08/04 10:25:04;;;;;;;2.23;1.80;;;;;;;;;;5055713;28;20453;-71
2021/08/04 10:27:30;;;;;;;2.90;2.03;;;;;;;;;;5054811;28;20421;-70
2021/08/04 10:29:56;;;;;;;3.37;1.73;;;;;;;;;;5053879;28;20410;-71
2021/08/04 10:32:22;;;;;;;2.10;1.87;;;;;;;;;;5054981;28;20425;-70
2021/08/04 10:34:49;;;;;;;2.00;1.40;;;;;;;;;;5057168;28;20477;-71
2021/08/04 10:37:16;;;;;;;1.97;1.63;;;;;;;;;;5054904;28;20415;-69
2021/08/04 10:39:43;;;;;;;2.97;2.07;;;;;;;;;;5055163;28;20450;-71
2021/08/04 10:42:09;;;;;;;1.90;1.47;;;;;;;;;;5055036;28;20418;-70
2021/08/04 10:44:36;;;;;;;1.83;1.67;;;;;;;;;;5054238;28;20442;-71
2021/08/04 10:47:05;;;;;;;1.87;1.77;;;;;;;;;;5055068;28;20893;-71
2021/08/04 10:49:32;;;;;;;1.60;1.50;;;;;;;;;;5055056;28;20453;-71
2021/08/04 10:52:01;;;;;;;2.10;1.90;;;;;;;;;;5055420;28;20891;-72
2021/08/04 10:54:32;;;;;;;2.33;1.70;;;;;;;;;;5055227;28;20438;-72
2021/08/04 10:56:58;;;;;;;1.77;1.67;;;;;;;;;;5054924;28;20399;-72
2021/08/04 11:02:28;;;;;;;2.80;1.97;;;;;;;;;;5054988;28;20888;-70
2021/08/04 11:04:54;;;;;;;1.83;1.70;;;;;;;;;;5054832;28;20792;-70
2021/08/04 11:07:21;;;;;;;3.03;2.10;;;;;;;;;;5053870;28;20881;-71
2021/08/04 11:09:51;;;;;;;3.03;1.70;;;;;;;;;;5054283;28;20457;-71
2021/08/04 11:12:17;;;;;;;2.43;1.33;;;;;;;;;;5054523;28;20526;-71
2021/08/04 11:18:03;;;;;;;2.93;1.67;;;;;;;;;;5054043;28;20473;-71
2021/08/04 11:20:30;;;;;;;4.10;1.90;;;;;;;;;;5054827;28;20474;-71
2021/08/04 11:22:56;;;;;;;2.33;2.00;;;;;;;;;;5054431;28;20411;-70
2021/08/04 11:25:24;;;;;;;3.07;1.70;;;;;;;;;;5054526;28;20447;-70
2021/08/04 11:27:53;;;;;;;1.70;1.50;;;;;;;;;;5054393;28;20411;-70
2021/08/04 11:30:36;;;;;;;1.83;1.40;;;;;;;;;;5054503;28;20407;-70
2021/08/04 11:33:29;;;;;;;3.13;2.13;;;;;;;;;;5054512;28;20762;-70
2021/08/04 11:36:04;;;;;;;3.33;1.93;;;;;;;;;;5054331;28;20474;-69
2021/08/04 11:38:46;;;;;;;2.00;1.70;;;;;;;;;;5054566;28;20796;-69
2021/08/04 11:41:24;;;;;;;2.13;1.43;;;;;;;;;;5054179;28;20965;-68
2021/08/04 11:43:51;;;;;;;2.63;1.30;;;;;;;;;;5054506;28;20468;-69
2021/08/04 11:46:36;;;;;;;3.23;2.30;;;;;;;;;;5054538;28;20422;-69
2021/08/04 11:49:03;;;;;;;3.30;2.20;;;;;;;;;;5054465;28;20406;-69
2021/08/04 11:51:33;;;;;;;3.40;2.40;;;;;;;;;;5054023;28;20403;-69
2021/08/04 11:53:59;;;;;;;2.60;1.40;;;;;;;;;;5054118;28;20829;-69
2021/08/04 11:56:25;;;;;;;1.70;1.60;;;;;;;;;;5053875;28;20844;-69
2021/08/04 11:58:51;;;;;;;1.73;1.50;;;;;;;;;;5052529;28;20480;-70
2021/08/04 12:01:18;;;;;;;1.60;1.50;;;;;;;;;;5053854;28;20473;-69
2021/08/04 12:03:44;;;;;;;1.73;1.63;;;;;;;;;;5053936;28;20439;-70
2021/08/04 12:06:18;;;;;;;2.00;1.60;;;;;;;;;;5052741;28;20939;-70
2021/08/04 12:08:44;;;;;;;2.37;2.17;;;;;;;;;;5053614;28;20889;-70
2021/08/04 12:11:11;;;;;;;1.87;1.77;;;;;;;;;;5052432;28;20434;-69
2021/08/04 12:13:39;;;;;;;1.57;1.37;;;;;;;;;;5052182;28;20419;-70
2021/08/04 12:16:09;;;;;;;1.80;1.70;;;;;;;;;;5053533;28;20415;-69
2021/08/04 12:18:46;;;;;;;2.07;1.60;;;;;;;;;;5053611;28;20458;-70
2021/08/04 12:21:16;;;;;;;1.60;1.50;;;;;;;;;;5052561;28;20482;-70
2021/08/04 12:23:45;;;;;;;2.77;1.03;;;;;;;;;;5053571;28;20441;-69
2021/08/04 12:26:11;;;;;;;1.77;1.30;;;;;;;;;;5052408;28;20415;-70
2021/08/04 12:28:37;;;;;;;2.13;1.23;;;;;;;;;;5053296;28;20844;-70
2021/08/04 12:31:03;;;;;;;1.83;1.67;;;;;;;;;;5053415;28;20890;-70
2021/08/04 12:33:45;;;;;;;1.77;1.60;;;;;;;;;;5053008;28;20518;-70
2021/08/04 12:36:22;;;;;;;2.10;1.37;;;;;;;;;;5053110;28;20482;-69
2021/08/04 12:38:53;;;;;;;1.70;1.60;;;;;;;;;;5052881;28;20432;-70
2021/08/04 12:41:23;;;;;;;1.90;1.50;;;;;;;;;;5052850;28;20512;-68
2021/08/04 12:43:54;;;;;;;1.53;1.43;;;;;;;;;;5053231;28;20419;-69
2021/08/04 12:46:27;;;;;;;1.83;1.67;;;;;;;;;;5053048;28;20840;-69
2021/08/04 12:48:53;;;;;;;2.07;1.87;;;;;;;;;;5053809;28;20834;-70
2021/08/04 12:51:22;;;;;;;1.50;1.40;;;;;;;;;;5052528;28;20423;-72
2021/08/04 12:54:01;;;;;;;1.80;1.60;;;;;;;;;;5051343;28;20929;-71
2021/08/04 12:56:41;;;;;;;3.00;1.50;;;;;;;;;;5051524;28;20426;-70
2021/08/04 12:59:08;;;;;;;2.00;1.70;;;;;;;;;;5051061;28;20517;-70
2021/08/04 13:01:38;;;;;;;3.10;1.40;;;;;;;;;;5051193;28;20975;-70
2021/08/04 13:04:16;;;;;;;2.77;1.47;;;;;;;;;;5052608;28;20422;-70
2021/08/04 13:06:55;;;;;;;2.47;1.80;;;;;;;;;;5052352;28;20809;-70
2021/08/04 13:09:22;;;;;;;1.60;1.50;;;;;;;;;;5052515;28;20453;-69
2021/08/04 13:12:23;;;;;;;1.40;1.30;;;;;;;;;;5052561;28;20419;-70
2021/08/04 13:14:56;;;;;;;2.47;1.30;;;;;;;;;;5052595;28;20411;-71
2021/08/04 13:17:24;;;;;;;1.60;1.50;;;;;;;;;;5052521;28;20442;-70
2021/08/04 13:20:01;;;;;;;2.17;1.97;;;;;;;;;;5052756;28;20945;-69
2021/08/04 13:22:27;;;;;;;1.47;1.30;;;;;;;;;;5052347;28;20410;-70
2021/08/04 13:24:53;;;;;;;3.27;1.77;;;;;;;;;;5052369;28;20415;-70
2021/08/04 13:27:30;;;;;;;2.50;1.60;;;;;;;;;;5052586;28;20498;-69
2021/08/04 13:30:14;;;;;;;4.67;1.77;;;;;;;;;;5052390;28;20467;-70
2021/08/04 13:32:40;;;;;;;1.87;1.63;;;;;;;;;;5052252;28;20407;-69
2021/08/04 13:35:06;;;;;;;2.53;1.47;;;;;;;;;;5051968;28;20474;-69
2021/08/04 13:37:32;;;;;;;3.00;1.67;;;;;;;;;;5051573;28;20407;-71
2021/08/04 13:39:58;;;;;;;2.60;1.57;;;;;;;;;;5052041;28;20469;-70
2021/08/04 13:42:24;;;;;;;1.77;1.40;;;;;;;;;;5052260;28;20451;-69
2021/08/04 13:44:50;;;;;;;1.67;1.57;;;;;;;;;;5052162;28;20910;-70
2021/08/04 13:47:16;;;;;;;2.47;1.60;;;;;;;;;;5052380;28;20898;-70
2021/08/04 13:49:42;;;;;;;1.67;1.57;;;;;;;;;;5052176;28;20502;-71
2021/08/04 13:52:08;;;;;;;1.00;0.90;;;;;;;;;;5052072;28;20762;-69
2021/08/04 13:54:34;;;;;;;1.70;1.57;;;;;;;;;;5052018;28;20406;-69
2021/08/04 13:57:00;;;;;;;1.73;1.63;;;;;;;;;;5052006;28;20415;-70
2021/08/04 13:59:26;;;;;;;1.70;1.60;;;;;;;;;;5051995;28;20536;-70
2021/08/04 14:01:52;;;;;;;2.47;1.13;;;;;;;;;;5052021;28;20467;-70
2021/08/04 14:04:19;;;;;;;2.60;1.70;;;;;;;;;;5052052;28;20757;-70
2021/08/04 14:06:45;;;;;;;3.27;2.00;;;;;;;;;;5051990;28;20465;-70
2021/08/04 14:09:11;;;;;;;3.80;2.33;;;;;;;;;;5051699;28;20419;-78
2021/08/04 14:11:37;;;;;;;4.03;2.30;;;;;;;;;;5050507;28;20449;-76
2021/08/04 14:14:03;;;;;;;1.60;1.50;;;;;;;;;;5051860;28;20415;-79
2021/08/04 14:16:29;;;;;;;2.87;2.20;;;;;;;;;;5052018;28;20434;-77
2021/08/04 14:18:55;;;;;;;1.73;1.63;;;;;;;;;;5051786;28;20415;-78
2021/08/04 14:21:21;;;;;;;2.07;1.83;;;;;;;;;;5051588;28;20915;-79
2021/08/04 14:23:47;;;;;;;2.50;2.10;;;;;;;;;;5051495;28;20442;-79
2021/08/04 14:26:13;;;;;;;7.73;2.13;;;;;;;;;;5051545;28;20790;-77
2021/08/04 14:28:39;;;;;;;3.60;1.80;;;;;;;;;;5051484;28;20415;-79
2021/08/04 14:31:05;;;;;;;3.37;2.20;;;;;;;;;;5051626;28;20529;-77
2021/08/04 14:33:31;;;;;;;3.00;2.37;;;;;;;;;;5051826;28;20798;-78
2021/08/04 14:35:59;;;;;;;2.40;2.20;;;;;;;;;;5051616;28;20475;-79
2021/08/04 14:38:25;;;;;;;2.33;2.13;;;;;;;;;;5051861;28;20585;-77
2021/08/04 14:40:51;;;;;;;3.97;2.20;;;;;;;;;;5051459;28;21038;-77
2021/08/04 14:43:17;;;;;;;1.60;1.50;;;;;;;;;;5051441;28;20412;-76
2021/08/04 14:48:46;;;;;;;2.53;1.40;;;;;;;;;;5051419;28;20414;-76
2021/08/04 14:51:12;;;;;;;2.43;1.30;;;;;;;;;;5054740;28;20411;-79
2021/08/04 14:53:38;;;;;;;1.70;1.40;;;;;;;;;;5054885;28;20414;-78
2021/08/04 14:56:04;;;;;;;1.80;1.70;;;;;;;;;;5054971;28;20411;-78
2021/08/04 14:58:30;;;;;;;2.17;1.97;;;;;;;;;;5054881;28;20889;-77
2021/08/04 15:04:04;;;;;;;6.77;2.10;;;;;;;;;;5055616;28;20464;-83
2021/08/04 15:06:31;;;;;;;1.97;1.80;;;;;;;;;;5062464;28;20496;-78
2021/08/04 15:08:57;;;;;;;1.83;1.70;;;;;;;;;;5055665;28;20745;-79
2021/08/04 15:11:23;;;;;;;2.43;1.87;;;;;;;;;;5055765;28;20410;-78
2021/08/04 15:13:49;;;;;;;3.43;1.80;;;;;;;;;;5054567;28;20726;-75
2021/08/04 15:19:19;;;;;;;2.63;1.67;;;;;;;;;;5054662;28;20405;-76
2021/08/04 15:21:45;;;;;;;2.60;1.30;;;;;;;;;;5054492;28;20538;-76
2021/08/04 15:24:11;;;;;;;2.00;1.80;;;;;;;;;;5054460;28;20404;-76
2021/08/04 15:26:39;;;;;;;2.30;1.50;;;;;;;;;;5054401;28;20426;-78
2021/08/04 15:29:06;;;;;;;3.23;1.77;;;;;;;;;;5054331;28;20411;-77
2021/08/04 15:31:33;;;;;;;1.70;1.60;;;;;;;;;;5054331;28;20415;-78
2021/08/04 15:33:59;;;;;;;3.60;1.90;;;;;;;;;;5054529;28;20836;-77
2021/08/04 15:36:26;;;;;;;3.43;1.90;;;;;;;;;;5054039;28;20671;-75
2021/08/04 15:38:52;;;;;;;2.17;1.70;;;;;;;;;;5054051;28;20411;-79
2021/08/04 15:41:18;;;;;;;4.37;1.87;;;;;;;;;;5054247;28;20477;-77
2021/08/04 15:43:44;;;;;;;2.30;1.80;;;;;;;;;;5054251;28;20870;-76
2021/08/04 15:49:14;;;;;;;5.80;2.17;;;;;;;;;;5053938;28;20414;-74
2021/08/04 15:51:44;;;;;;;2.27;1.90;;;;;;;;;;5054161;28;20415;-77
2021/08/04 15:54:10;;;;;;;4.03;1.83;;;;;;;;;;5053832;28;20509;-76
2021/08/04 15:56:36;;;;;;;4.10;1.97;;;;;;;;;;5053811;28;20492;-76
2021/08/04 15:59:02;;;;;;;2.00;1.80;;;;;;;;;;5053866;28;20407;-77
2021/08/04 16:04:33;;;;;;;2.63;1.60;;;;;;;;;;5053822;28;20851;-69
2021/08/04 16:06:59;;;;;;;1.90;1.70;;;;;;;;;;5053816;28;20392;-69
2021/08/04 16:09:25;;;;;;;2.47;1.80;;;;;;;;;;5053614;28;20514;-70
2021/08/04 16:11:50;;;;;;;4.13;1.87;;;;;;;;;;5053639;28;20636;-70
2021/08/04 16:14:16;;;;;;;2.93;1.47;;;;;;;;;;5053713;28;20411;-70
2021/08/04 16:16:42;;;;;;;2.03;1.87;;;;;;;;;;5053600;28;20775;-70
2021/08/04 16:19:11;;;;;;;2.40;1.83;;;;;;;;;;5052169;28;20447;-71
2021/08/04 16:21:37;;;;;;;3.77;2.03;;;;;;;;;;5052255;28;20497;-70